sensor_id;sensor_type;location;lat;lon;timestamp;pressure;altitude;pressure_sealevel;temperature
67966;BMP280;54749;47.850;9.002;2022-09-13T00:00:58;95744.31;;;11.54
67966;BMP280;54749;47.850;9.002;2022-09-13T00:03:35;95742.59;;;11.55
67966;BMP280;54749;47.850;9.002;2022-09-13T00:06:10;95743.25;;;11.56
67966;BMP280;54749;47.850;9.002;2022-09-13T00:08:38;95740.50;;;11.59
67966;BMP280;54749;47.850;9.002;2022-09-13T00:11:06;95742.34;;;11.57
67966;BMP280;54749;47.850;9.002;2022-09-13T00:13:34;95732.91;;;11.59
67966;BMP280;54749;47.850;9.002;2022-09-13T00:16:01;95722.78;;;11.59
67966;BMP280;54749;47.850;9.002;2022-09-13T00:18:30;95710.25;;;11.58
67966;BMP280;54749;47.850;9.002;2022-09-13T00:21:09;95716.38;;;11.56
67966;BMP280;54749;47.850;9.002;2022-09-13T00:23:36;95712.88;;;11.56
67966;BMP280;54749;47.850;9.002;2022-09-13T00:26:05;95712.34;;;11.53
67966;BMP280;54749;47.850;9.002;2022-09-13T00:28:33;95711.00;;;11.49
67966;BMP280;54749;47.850;9.002;2022-09-13T00:31:01;95714.72;;;11.45
67966;BMP280;54749;47.850;9.002;2022-09-13T00:33:29;95711.88;;;11.39
67966;BMP280;54749;47.850;9.002;2022-09-13T00:35:55;95705.03;;;11.30
67966;BMP280;54749;47.850;9.002;2022-09-13T00:38:23;95694.59;;;11.24
67966;BMP280;54749;47.850;9.002;2022-09-13T00:40:49;95707.63;;;11.20
67966;BMP280;54749;47.850;9.002;2022-09-13T00:43:18;95716.38;;;11.16
67966;BMP280;54749;47.850;9.002;2022-09-13T00:45:46;95718.09;;;11.15
67966;BMP280;54749;47.850;9.002;2022-09-13T00:48:20;95719.56;;;11.18
67966;BMP280;54749;47.850;9.002;2022-09-13T00:50:54;95717.84;;;11.18
67966;BMP280;54749;47.850;9.002;2022-09-13T00:53:30;95718.09;;;11.15
67966;BMP280;54749;47.850;9.002;2022-09-13T00:56:07;95719.03;;;11.14
67966;BMP280;54749;47.850;9.002;2022-09-13T00:58:39;95719.84;;;11.15
67966;BMP280;54749;47.850;9.002;2022-09-13T01:01:11;95716.63;;;11.13
67966;BMP280;54749;47.850;9.002;2022-09-13T01:03:39;95710.78;;;11.12
67966;BMP280;54749;47.850;9.002;2022-09-13T01:06:10;95716.31;;;11.06
67966;BMP280;54749;47.850;9.002;2022-09-13T01:08:41;95710.72;;;11.03
67966;BMP280;54749;47.850;9.002;2022-09-13T01:11:11;95703.78;;;11.05
67966;BMP280;54749;47.850;9.002;2022-09-13T01:13:43;95704.50;;;11.07
67966;BMP280;54749;47.850;9.002;2022-09-13T01:16:10;95711.38;;;11.05
67966;BMP280;54749;47.850;9.002;2022-09-13T01:18:37;95704.06;;;11.02
67966;BMP280;54749;47.850;9.002;2022-09-13T01:24:29;95705.94;;;11.09
67966;BMP280;54749;47.850;9.002;2022-09-13T01:30:11;95716.75;;;11.11
67966;BMP280;54749;47.850;9.002;2022-09-13T01:32:52;95710.19;;;11.09
67966;BMP280;54749;47.850;9.002;2022-09-13T01:43:56;95704.69;;;10.95
67966;BMP280;54749;47.850;9.002;2022-09-13T01:46:36;95705.28;;;10.87
67966;BMP280;54749;47.850;9.002;2022-09-13T01:49:27;95709.91;;;10.83
67966;BMP280;54749;47.850;9.002;2022-09-13T01:52:00;95697.41;;;10.81
67966;BMP280;54749;47.850;9.002;2022-09-13T01:54:46;95702.81;;;10.77
67966;BMP280;54749;47.850;9.002;2022-09-13T01:57:58;95708.09;;;10.74
67966;BMP280;54749;47.850;9.002;2022-09-13T02:00:22;95715.81;;;10.72
67966;BMP280;54749;47.850;9.002;2022-09-13T02:03:01;95716.63;;;10.73
67966;BMP280;54749;47.850;9.002;2022-09-13T02:05:39;95720.06;;;10.72
67966;BMP280;54749;47.850;9.002;2022-09-13T02:08:11;95721.91;;;10.70
67966;BMP280;54749;47.850;9.002;2022-09-13T02:10:48;95720.31;;;10.69
67966;BMP280;54749;47.850;9.002;2022-09-13T02:13:20;95717.09;;;10.67
67966;BMP280;54749;47.850;9.002;2022-09-13T02:15:53;95718.81;;;10.67
67966;BMP280;54749;47.850;9.002;2022-09-13T02:18:29;95718.72;;;10.68
67966;BMP280;54749;47.850;9.002;2022-09-13T02:21:00;95718.03;;;10.66
67966;BMP280;54749;47.850;9.002;2022-09-13T02:23:37;95703.56;;;10.68
67966;BMP280;54749;47.850;9.002;2022-09-13T02:26:08;95708.16;;;10.63
67966;BMP280;54749;47.850;9.002;2022-09-13T02:28:42;95710.25;;;10.58
67966;BMP280;54749;47.850;9.002;2022-09-13T02:31:11;95705.00;;;10.50
67966;BMP280;54749;47.850;9.002;2022-09-13T02:33:50;95710.53;;;10.45
67966;BMP280;54749;47.850;9.002;2022-09-13T02:36:23;95714.91;;;10.43
67966;BMP280;54749;47.850;9.002;2022-09-13T02:38:56;95718.59;;;10.39
67966;BMP280;54749;47.850;9.002;2022-09-13T02:49:28;95720.25;;;10.29
67966;BMP280;54749;47.850;9.002;2022-09-13T02:54:45;95734.03;;;10.25
67966;BMP280;54749;47.850;9.002;2022-09-13T02:57:21;95730.56;;;10.26
67966;BMP280;54749;47.850;9.002;2022-09-13T02:59:52;95727.56;;;10.32
67966;BMP280;54749;47.850;9.002;2022-09-13T03:02:22;95726.53;;;10.34
67966;BMP280;54749;47.850;9.002;2022-09-13T03:04:50;95722.84;;;10.38
67966;BMP280;54749;47.850;9.002;2022-09-13T03:07:17;95728.81;;;10.37
67966;BMP280;54749;47.850;9.002;2022-09-13T03:09:56;95734.69;;;10.38
67966;BMP280;54749;47.850;9.002;2022-09-13T03:15:14;95713.56;;;10.28
67966;BMP280;54749;47.850;9.002;2022-09-13T03:17:52;95714.50;;;10.27
67966;BMP280;54749;47.850;9.002;2022-09-13T03:31:32;95726.00;;;10.10
67966;BMP280;54749;47.850;9.002;2022-09-13T03:34:11;95718.69;;;10.07
67966;BMP280;54749;47.850;9.002;2022-09-13T03:39:47;95710.19;;;9.97
67966;BMP280;54749;47.850;9.002;2022-09-13T03:42:30;95707.13;;;9.94
67966;BMP280;54749;47.850;9.002;2022-09-13T03:44:59;95706.56;;;9.90
67966;BMP280;54749;47.850;9.002;2022-09-13T03:47:28;95720.09;;;9.89
67966;BMP280;54749;47.850;9.002;2022-09-13T03:49:57;95711.03;;;9.87
67966;BMP280;54749;47.850;9.002;2022-09-13T03:52:24;95713.22;;;9.91
67966;BMP280;54749;47.850;9.002;2022-09-13T03:54:52;95711.59;;;9.90
67966;BMP280;54749;47.850;9.002;2022-09-13T03:57:22;95716.66;;;9.90
67966;BMP280;54749;47.850;9.002;2022-09-13T03:59:54;95711.16;;;9.85
67966;BMP280;54749;47.850;9.002;2022-09-13T04:02:24;95713.91;;;9.82
67966;BMP280;54749;47.850;9.002;2022-09-13T04:04:51;95719.16;;;9.80
67966;BMP280;54749;47.850;9.002;2022-09-13T04:07:20;95715.25;;;9.76
67966;BMP280;54749;47.850;9.002;2022-09-13T04:09:47;95712.97;;;9.73
67966;BMP280;54749;47.850;9.002;2022-09-13T04:12:15;95715.53;;;10.25
67966;BMP280;54749;47.850;9.002;2022-09-13T04:14:42;95716.75;;;10.41
67966;BMP280;54749;47.850;9.002;2022-09-13T04:17:10;95724.31;;;10.71
67966;BMP280;54749;47.850;9.002;2022-09-13T04:19:39;95712.38;;;10.93
67966;BMP280;54749;47.850;9.002;2022-09-13T04:22:06;95720.44;;;10.87
67966;BMP280;54749;47.850;9.002;2022-09-13T04:24:32;95731.63;;;10.85
67966;BMP280;54749;47.850;9.002;2022-09-13T04:27:00;95726.41;;;11.26
67966;BMP280;54749;47.850;9.002;2022-09-13T04:29:26;95720.31;;;11.49
67966;BMP280;54749;47.850;9.002;2022-09-13T04:31:54;95725.38;;;11.49
67966;BMP280;54749;47.850;9.002;2022-09-13T04:34:22;95731.28;;;11.29
67966;BMP280;54749;47.850;9.002;2022-09-13T04:36:50;95728.34;;;11.14
67966;BMP280;54749;47.850;9.002;2022-09-13T04:39:18;95719.78;;;11.05
67966;BMP280;54749;47.850;9.002;2022-09-13T04:41:46;95732.72;;;10.92
67966;BMP280;54749;47.850;9.002;2022-09-13T04:44:15;95737.47;;;10.85
67966;BMP280;54749;47.850;9.002;2022-09-13T04:46:45;95740.06;;;11.15
67966;BMP280;54749;47.850;9.002;2022-09-13T04:49:14;95726.00;;;11.41
67966;BMP280;54749;47.850;9.002;2022-09-13T04:51:42;95721.66;;;11.53
67966;BMP280;54749;47.850;9.002;2022-09-13T04:54:10;95725.56;;;11.95
67966;BMP280;54749;47.850;9.002;2022-09-13T04:56:40;95724.97;;;12.11
67966;BMP280;54749;47.850;9.002;2022-09-13T04:59:07;95736.81;;;12.11
67966;BMP280;54749;47.850;9.002;2022-09-13T05:01:37;95736.16;;;12.18
67966;BMP280;54749;47.850;9.002;2022-09-13T05:04:05;95738.56;;;12.20
67966;BMP280;54749;47.850;9.002;2022-09-13T05:06:32;95750.69;;;11.78
67966;BMP280;54749;47.850;9.002;2022-09-13T05:08:59;95752.63;;;11.65
67966;BMP280;54749;47.850;9.002;2022-09-13T05:11:27;95750.94;;;11.46
67966;BMP280;54749;47.850;9.002;2022-09-13T05:13:57;95748.91;;;11.20
67966;BMP280;54749;47.850;9.002;2022-09-13T05:16:26;95757.41;;;10.99
67966;BMP280;54749;47.850;9.002;2022-09-13T05:18:53;95758.00;;;10.92
67966;BMP280;54749;47.850;9.002;2022-09-13T05:21:20;95758.19;;;10.80
67966;BMP280;54749;47.850;9.002;2022-09-13T05:23:48;95757.19;;;10.71
67966;BMP280;54749;47.850;9.002;2022-09-13T05:26:16;95753.38;;;10.77
67966;BMP280;54749;47.850;9.002;2022-09-13T05:28:43;95751.03;;;10.85
67966;BMP280;54749;47.850;9.002;2022-09-13T05:31:18;95746.59;;;10.97
67966;BMP280;54749;47.850;9.002;2022-09-13T05:33:51;95740.63;;;11.18
67966;BMP280;54749;47.850;9.002;2022-09-13T05:36:18;95743.19;;;11.38
67966;BMP280;54749;47.850;9.002;2022-09-13T05:38:45;95740.81;;;11.75
67966;BMP280;54749;47.850;9.002;2022-09-13T05:41:12;95743.50;;;12.12
67966;BMP280;54749;47.850;9.002;2022-09-13T05:43:39;95741.13;;;12.29
67966;BMP280;54749;47.850;9.002;2022-09-13T05:46:09;95738.63;;;12.57
67966;BMP280;54749;47.850;9.002;2022-09-13T05:48:36;95746.28;;;12.94
67966;BMP280;54749;47.850;9.002;2022-09-13T05:51:15;95758.78;;;13.41
67966;BMP280;54749;47.850;9.002;2022-09-13T05:53:44;95748.72;;;14.03
67966;BMP280;54749;47.850;9.002;2022-09-13T05:56:17;95736.72;;;14.82
67966;BMP280;54749;47.850;9.002;2022-09-13T05:58:46;95735.88;;;15.33
67966;BMP280;54749;47.850;9.002;2022-09-13T06:01:21;95730.94;;;15.81
67966;BMP280;54749;47.850;9.002;2022-09-13T06:03:49;95727.63;;;16.53
67966;BMP280;54749;47.850;9.002;2022-09-13T06:06:17;95724.19;;;16.93
67966;BMP280;54749;47.850;9.002;2022-09-13T06:08:45;95716.81;;;17.84
67966;BMP280;54749;47.850;9.002;2022-09-13T06:11:13;95706.78;;;18.87
67966;BMP280;54749;47.850;9.002;2022-09-13T06:13:41;95697.38;;;20.01
67966;BMP280;54749;47.850;9.002;2022-09-13T06:16:11;95702.41;;;21.06
67966;BMP280;54749;47.850;9.002;2022-09-13T06:18:39;95696.03;;;21.91
67966;BMP280;54749;47.850;9.002;2022-09-13T06:21:08;95701.22;;;22.76
67966;BMP280;54749;47.850;9.002;2022-09-13T06:23:36;95688.28;;;23.40
67966;BMP280;54749;47.850;9.002;2022-09-13T06:26:05;95686.38;;;24.29
67966;BMP280;54749;47.850;9.002;2022-09-13T06:28:33;95680.53;;;24.95
67966;BMP280;54749;47.850;9.002;2022-09-13T06:31:07;95676.25;;;25.67
67966;BMP280;54749;47.850;9.002;2022-09-13T06:33:36;95677.81;;;26.34
67966;BMP280;54749;47.850;9.002;2022-09-13T06:36:14;95673.28;;;26.93
67966;BMP280;54749;47.850;9.002;2022-09-13T06:38:44;95671.41;;;27.68
67966;BMP280;54749;47.850;9.002;2022-09-13T06:41:17;95671.63;;;28.34
67966;BMP280;54749;47.850;9.002;2022-09-13T06:43:45;95657.31;;;28.97
67966;BMP280;54749;47.850;9.002;2022-09-13T06:46:14;95659.72;;;29.42
67966;BMP280;54749;47.850;9.002;2022-09-13T06:48:43;95656.09;;;30.07
67966;BMP280;54749;47.850;9.002;2022-09-13T06:51:18;95649.84;;;30.66
67966;BMP280;54749;47.850;9.002;2022-09-13T06:53:46;95650.59;;;31.03
67966;BMP280;54749;47.850;9.002;2022-09-13T06:56:19;95646.50;;;31.68
67966;BMP280;54749;47.850;9.002;2022-09-13T06:58:49;95654.69;;;32.17
67966;BMP280;54749;47.850;9.002;2022-09-13T07:01:21;95649.22;;;32.69
67966;BMP280;54749;47.850;9.002;2022-09-13T07:04:07;95647.56;;;33.03
67966;BMP280;54749;47.850;9.002;2022-09-13T07:06:37;95639.44;;;33.05
67966;BMP280;54749;47.850;9.002;2022-09-13T07:09:06;95645.03;;;33.37
67966;BMP280;54749;47.850;9.002;2022-09-13T07:11:36;95630.38;;;33.85
67966;BMP280;54749;47.850;9.002;2022-09-13T07:14:04;95631.63;;;34.36
67966;BMP280;54749;47.850;9.002;2022-09-13T07:16:35;95631.66;;;34.93
67966;BMP280;54749;47.850;9.002;2022-09-13T07:19:05;95616.41;;;35.37
67966;BMP280;54749;47.850;9.002;2022-09-13T07:21:33;95619.50;;;35.49
67966;BMP280;54749;47.850;9.002;2022-09-13T07:24:01;95612.09;;;35.51
67966;BMP280;54749;47.850;9.002;2022-09-13T07:26:28;95612.03;;;35.65
67966;BMP280;54749;47.850;9.002;2022-09-13T07:28:58;95612.25;;;36.24
67966;BMP280;54749;47.850;9.002;2022-09-13T07:31:33;95625.44;;;36.47
67966;BMP280;54749;47.850;9.002;2022-09-13T07:34:06;95621.34;;;36.82
67966;BMP280;54749;47.850;9.002;2022-09-13T07:36:34;95612.78;;;37.31
67966;BMP280;54749;47.850;9.002;2022-09-13T07:39:03;95619.78;;;37.89
67966;BMP280;54749;47.850;9.002;2022-09-13T07:41:31;95620.41;;;38.30
67966;BMP280;54749;47.850;9.002;2022-09-13T07:43:59;95627.25;;;38.44
67966;BMP280;54749;47.850;9.002;2022-09-13T07:46:29;95619.91;;;38.81
67966;BMP280;54749;47.850;9.002;2022-09-13T07:49:00;95618.22;;;38.98
67966;BMP280;54749;47.850;9.002;2022-09-13T07:51:29;95613.41;;;39.26
67966;BMP280;54749;47.850;9.002;2022-09-13T07:53:59;95619.28;;;39.58
67966;BMP280;54749;47.850;9.002;2022-09-13T07:56:28;95608.81;;;39.74
67966;BMP280;54749;47.850;9.002;2022-09-13T07:58:58;95617.06;;;39.51
67966;BMP280;54749;47.850;9.002;2022-09-13T08:04:02;95615.50;;;38.76
67966;BMP280;54749;47.850;9.002;2022-09-13T08:06:31;95615.41;;;39.08
67966;BMP280;54749;47.850;9.002;2022-09-13T08:08:58;95615.59;;;39.46
67966;BMP280;54749;47.850;9.002;2022-09-13T08:11:33;95611.03;;;40.23
67966;BMP280;54749;47.850;9.002;2022-09-13T08:14:01;95608.88;;;40.63
67966;BMP280;54749;47.850;9.002;2022-09-13T08:16:29;95601.81;;;40.59
67966;BMP280;54749;47.850;9.002;2022-09-13T08:18:59;95604.72;;;40.41
67966;BMP280;54749;47.850;9.002;2022-09-13T08:21:31;95613.41;;;40.71
67966;BMP280;54749;47.850;9.002;2022-09-13T08:23:59;95610.88;;;41.04
67966;BMP280;54749;47.850;9.002;2022-09-13T08:26:27;95606.97;;;41.02
67966;BMP280;54749;47.850;9.002;2022-09-13T08:28:56;95609.06;;;41.54
67966;BMP280;54749;47.850;9.002;2022-09-13T08:31:24;95607.66;;;41.81
67966;BMP280;54749;47.850;9.002;2022-09-13T08:33:52;95607.56;;;40.99
67966;BMP280;54749;47.850;9.002;2022-09-13T08:36:19;95614.22;;;40.80
67966;BMP280;54749;47.850;9.002;2022-09-13T08:38:54;95607.16;;;41.30
67966;BMP280;54749;47.850;9.002;2022-09-13T08:47:26;95617.53;;;40.93
67966;BMP280;54749;47.850;9.002;2022-09-13T08:50:04;95616.09;;;40.88
67966;BMP280;54749;47.850;9.002;2022-09-13T08:55:24;95611.53;;;41.34
67966;BMP280;54749;47.850;9.002;2022-09-13T09:00:48;95613.56;;;41.78
67966;BMP280;54749;47.850;9.002;2022-09-13T09:03:36;95610.91;;;42.03
67966;BMP280;54749;47.850;9.002;2022-09-13T09:06:12;95607.88;;;42.13
67966;BMP280;54749;47.850;9.002;2022-09-13T09:08:44;95599.59;;;42.14
67966;BMP280;54749;47.850;9.002;2022-09-13T09:11:47;95595.06;;;42.23
67966;BMP280;54749;47.850;9.002;2022-09-13T09:14:21;95591.50;;;42.84
67966;BMP280;54749;47.850;9.002;2022-09-13T09:16:54;95583.25;;;43.05
67966;BMP280;54749;47.850;9.002;2022-09-13T09:19:28;95571.53;;;43.06
67966;BMP280;54749;47.850;9.002;2022-09-13T09:22:03;95582.06;;;42.67
67966;BMP280;54749;47.850;9.002;2022-09-13T09:24:34;95584.66;;;42.47
67966;BMP280;54749;47.850;9.002;2022-09-13T09:27:13;95572.44;;;43.10
67966;BMP280;54749;47.850;9.002;2022-09-13T09:29:41;95570.38;;;43.36
67966;BMP280;54749;47.850;9.002;2022-09-13T09:38:35;95572.00;;;41.99
67966;BMP280;54749;47.850;9.002;2022-09-13T09:41:17;95576.34;;;42.03
67966;BMP280;54749;47.850;9.002;2022-09-13T09:44:00;95570.09;;;42.44
67966;BMP280;54749;47.850;9.002;2022-09-13T09:46:34;95572.09;;;42.92
67966;BMP280;54749;47.850;9.002;2022-09-13T09:49:06;95560.28;;;43.21
67966;BMP280;54749;47.850;9.002;2022-09-13T09:51:57;95557.06;;;43.16
67966;BMP280;54749;47.850;9.002;2022-09-13T09:54:25;95564.47;;;42.46
67966;BMP280;54749;47.850;9.002;2022-09-13T09:56:53;95571.78;;;42.85
67966;BMP280;54749;47.850;9.002;2022-09-13T09:59:25;95564.16;;;42.47
67966;BMP280;54749;47.850;9.002;2022-09-13T10:01:54;95558.59;;;42.68
67966;BMP280;54749;47.850;9.002;2022-09-13T10:04:23;95545.94;;;42.94
67966;BMP280;54749;47.850;9.002;2022-09-13T10:07:09;95549.56;;;42.25
67966;BMP280;54749;47.850;9.002;2022-09-13T10:09:57;95545.13;;;41.84
67966;BMP280;54749;47.850;9.002;2022-09-13T10:12:27;95534.38;;;41.72
67966;BMP280;54749;47.850;9.002;2022-09-13T10:15:15;95537.75;;;41.97
67966;BMP280;54749;47.850;9.002;2022-09-13T10:17:59;95538.47;;;41.12
67966;BMP280;54749;47.850;9.002;2022-09-13T10:20:28;95535.78;;;41.37
67966;BMP280;54749;47.850;9.002;2022-09-13T10:25:38;95532.06;;;42.24
67966;BMP280;54749;47.850;9.002;2022-09-13T10:28:11;95531.41;;;41.57
67966;BMP280;54749;47.850;9.002;2022-09-13T10:30:41;95529.53;;;41.58
67966;BMP280;54749;47.850;9.002;2022-09-13T10:33:39;95526.09;;;41.82
67966;BMP280;54749;47.850;9.002;2022-09-13T10:36:18;95531.44;;;42.10
67966;BMP280;54749;47.850;9.002;2022-09-13T10:39:14;95523.31;;;42.15
67966;BMP280;54749;47.850;9.002;2022-09-13T10:41:50;95516.59;;;42.17
67966;BMP280;54749;47.850;9.002;2022-09-13T10:44:37;95517.25;;;42.06
67966;BMP280;54749;47.850;9.002;2022-09-13T10:47:11;95521.72;;;42.22
67966;BMP280;54749;47.850;9.002;2022-09-13T10:49:44;95518.00;;;41.45
67966;BMP280;54749;47.850;9.002;2022-09-13T10:52:46;95515.94;;;40.85
67966;BMP280;54749;47.850;9.002;2022-09-13T10:57:47;95519.13;;;42.06
67966;BMP280;54749;47.850;9.002;2022-09-13T11:00:18;95519.75;;;42.03
67966;BMP280;54749;47.850;9.002;2022-09-13T11:06:08;95513.22;;;40.43
67966;BMP280;54749;47.850;9.002;2022-09-13T11:17:32;95515.06;;;35.17
67966;BMP280;54749;47.850;9.002;2022-09-13T11:23:03;95530.75;;;33.41
67966;BMP280;54749;47.850;9.002;2022-09-13T11:28:45;95522.91;;;32.33
67966;BMP280;54749;47.850;9.002;2022-09-13T11:33:55;95520.97;;;32.09
67966;BMP280;54749;47.850;9.002;2022-09-13T11:39:33;95510.28;;;32.15
67966;BMP280;54749;47.850;9.002;2022-09-13T11:45:26;95492.88;;;32.45
67966;BMP280;54749;47.850;9.002;2022-09-13T11:48:12;95491.09;;;32.74
67966;BMP280;54749;47.850;9.002;2022-09-13T11:53:51;95477.53;;;32.92
67966;BMP280;54749;47.850;9.002;2022-09-13T11:56:23;95466.47;;;32.66
67966;BMP280;54749;47.850;9.002;2022-09-13T11:58:55;95459.88;;;32.39
67966;BMP280;54749;47.850;9.002;2022-09-13T12:01:30;95456.00;;;32.56
67966;BMP280;54749;47.850;9.002;2022-09-13T12:04:09;95453.94;;;32.68
67966;BMP280;54749;47.850;9.002;2022-09-13T12:06:45;95453.88;;;32.48
67966;BMP280;54749;47.850;9.002;2022-09-13T12:09:24;95458.06;;;31.80
67966;BMP280;54749;47.850;9.002;2022-09-13T12:12:12;95455.03;;;31.97
67966;BMP280;54749;47.850;9.002;2022-09-13T12:14:49;95437.25;;;32.04
67966;BMP280;54749;47.850;9.002;2022-09-13T12:17:25;95444.63;;;32.21
67966;BMP280;54749;47.850;9.002;2022-09-13T12:19:54;95440.47;;;32.16
67966;BMP280;54749;47.850;9.002;2022-09-13T12:22:26;95439.34;;;31.97
67966;BMP280;54749;47.850;9.002;2022-09-13T12:24:58;95447.75;;;32.14
67966;BMP280;54749;47.850;9.002;2022-09-13T12:27:40;95441.72;;;32.08
67966;BMP280;54749;47.850;9.002;2022-09-13T12:30:20;95436.22;;;32.05
67966;BMP280;54749;47.850;9.002;2022-09-13T12:32:48;95426.25;;;31.92
67966;BMP280;54749;47.850;9.002;2022-09-13T12:35:27;95415.69;;;31.73
67966;BMP280;54749;47.850;9.002;2022-09-13T12:44:05;95421.41;;;31.60
67966;BMP280;54749;47.850;9.002;2022-09-13T12:49:42;95418.78;;;31.20
67966;BMP280;54749;47.850;9.002;2022-09-13T12:52:54;95432.28;;;31.43
67966;BMP280;54749;47.850;9.002;2022-09-13T12:58:53;95426.97;;;31.33
67966;BMP280;54749;47.850;9.002;2022-09-13T13:01:22;95418.97;;;31.04
67966;BMP280;54749;47.850;9.002;2022-09-13T13:06:28;95414.25;;;30.75
67966;BMP280;54749;47.850;9.002;2022-09-13T13:08:59;95422.00;;;30.60
67966;BMP280;54749;47.850;9.002;2022-09-13T13:11:29;95413.31;;;30.29
67966;BMP280;54749;47.850;9.002;2022-09-13T13:14:48;95413.22;;;30.20
67966;BMP280;54749;47.850;9.002;2022-09-13T13:20:43;95410.84;;;29.51
67966;BMP280;54749;47.850;9.002;2022-09-13T13:23:20;95414.41;;;29.45
67966;BMP280;54749;47.850;9.002;2022-09-13T13:33:57;95406.22;;;29.99
67966;BMP280;54749;47.850;9.002;2022-09-13T13:36:26;95410.25;;;30.11
67966;BMP280;54749;47.850;9.002;2022-09-13T13:38:55;95404.72;;;30.03
67966;BMP280;54749;47.850;9.002;2022-09-13T13:43:59;95402.25;;;29.13
67966;BMP280;54749;47.850;9.002;2022-09-13T13:46:31;95405.00;;;29.07
67966;BMP280;54749;47.850;9.002;2022-09-13T14:00:11;95405.78;;;30.07
67966;BMP280;54749;47.850;9.002;2022-09-13T14:05:16;95402.28;;;29.97
67966;BMP280;54749;47.850;9.002;2022-09-13T14:10:53;95400.50;;;30.02
67966;BMP280;54749;47.850;9.002;2022-09-13T14:16:24;95395.50;;;30.22
67966;BMP280;54749;47.850;9.002;2022-09-13T14:21:29;95382.50;;;30.26
67966;BMP280;54749;47.850;9.002;2022-09-13T14:26:38;95384.53;;;30.20
67966;BMP280;54749;47.850;9.002;2022-09-13T14:29:07;95388.13;;;30.14
67966;BMP280;54749;47.850;9.002;2022-09-13T14:31:35;95391.06;;;29.96
67966;BMP280;54749;47.850;9.002;2022-09-13T14:34:03;95384.03;;;29.97
67966;BMP280;54749;47.850;9.002;2022-09-13T14:36:29;95377.97;;;29.91
67966;BMP280;54749;47.850;9.002;2022-09-13T14:38:58;95381.63;;;29.90
67966;BMP280;54749;47.850;9.002;2022-09-13T14:41:34;95369.97;;;29.77
67966;BMP280;54749;47.850;9.002;2022-09-13T14:44:19;95368.91;;;29.73
67966;BMP280;54749;47.850;9.002;2022-09-13T14:47:00;95361.41;;;29.55
67966;BMP280;54749;47.850;9.002;2022-09-13T14:49:35;95350.28;;;29.39
67966;BMP280;54749;47.850;9.002;2022-09-13T14:52:09;95345.06;;;29.39
67966;BMP280;54749;47.850;9.002;2022-09-13T14:54:47;95340.81;;;29.33
67966;BMP280;54749;47.850;9.002;2022-09-13T14:57:51;95341.22;;;29.25
67966;BMP280;54749;47.850;9.002;2022-09-13T15:00:20;95343.91;;;29.14
67966;BMP280;54749;47.850;9.002;2022-09-13T15:02:51;95351.41;;;29.11
67966;BMP280;54749;47.850;9.002;2022-09-13T15:05:20;95342.44;;;29.02
67966;BMP280;54749;47.850;9.002;2022-09-13T15:07:48;95348.94;;;29.00
67966;BMP280;54749;47.850;9.002;2022-09-13T15:10:22;95339.97;;;28.91
67966;BMP280;54749;47.850;9.002;2022-09-13T15:17:57;95336.47;;;28.48
67966;BMP280;54749;47.850;9.002;2022-09-13T15:20:27;95319.50;;;28.46
67966;BMP280;54749;47.850;9.002;2022-09-13T15:22:55;95321.22;;;28.41
67966;BMP280;54749;47.850;9.002;2022-09-13T15:25:25;95313.84;;;28.33
67966;BMP280;54749;47.850;9.002;2022-09-13T15:27:56;95315.81;;;28.26
67966;BMP280;54749;47.850;9.002;2022-09-13T15:30:29;95318.25;;;28.16
67966;BMP280;54749;47.850;9.002;2022-09-13T15:33:04;95311.56;;;27.93
67966;BMP280;54749;47.850;9.002;2022-09-13T15:35:37;95292.19;;;27.84
67966;BMP280;54749;47.850;9.002;2022-09-13T15:40:45;95288.66;;;27.90
67966;BMP280;54749;47.850;9.002;2022-09-13T15:43:12;95294.25;;;27.82
67966;BMP280;54749;47.850;9.002;2022-09-13T15:45:38;95297.16;;;27.70
67966;BMP280;54749;47.850;9.002;2022-09-13T15:48:24;95302.78;;;27.67
67966;BMP280;54749;47.850;9.002;2022-09-13T15:51:05;95318.41;;;27.56
67966;BMP280;54749;47.850;9.002;2022-09-13T15:53:33;95307.97;;;27.40
67966;BMP280;54749;47.850;9.002;2022-09-13T15:56:01;95302.91;;;27.33
67966;BMP280;54749;47.850;9.002;2022-09-13T15:58:29;95308.59;;;27.19
67966;BMP280;54749;47.850;9.002;2022-09-13T16:00:56;95307.75;;;27.03
67966;BMP280;54749;47.850;9.002;2022-09-13T16:03:23;95316.66;;;26.84
67966;BMP280;54749;47.850;9.002;2022-09-13T16:05:50;95324.59;;;26.67
67966;BMP280;54749;47.850;9.002;2022-09-13T16:08:17;95316.00;;;26.55
67966;BMP280;54749;47.850;9.002;2022-09-13T16:10:44;95317.03;;;26.43
67966;BMP280;54749;47.850;9.002;2022-09-13T16:13:11;95316.75;;;26.22
67966;BMP280;54749;47.850;9.002;2022-09-13T16:15:38;95306.16;;;26.01
67966;BMP280;54749;47.850;9.002;2022-09-13T16:18:05;95299.13;;;25.90
67966;BMP280;54749;47.850;9.002;2022-09-13T16:20:31;95298.84;;;25.81
67966;BMP280;54749;47.850;9.002;2022-09-13T16:22:58;95304.59;;;25.71
67966;BMP280;54749;47.850;9.002;2022-09-13T16:25:25;95298.56;;;25.60
67966;BMP280;54749;47.850;9.002;2022-09-13T16:27:52;95293.03;;;25.45
67966;BMP280;54749;47.850;9.002;2022-09-13T16:30:20;95299.38;;;25.31
67966;BMP280;54749;47.850;9.002;2022-09-13T16:32:50;95297.75;;;25.19
67966;BMP280;54749;47.850;9.002;2022-09-13T16:35:17;95290.34;;;25.05
67966;BMP280;54749;47.850;9.002;2022-09-13T16:37:44;95287.19;;;24.86
67966;BMP280;54749;47.850;9.002;2022-09-13T16:40:11;95289.56;;;24.70
67966;BMP280;54749;47.850;9.002;2022-09-13T16:42:39;95296.88;;;24.55
67966;BMP280;54749;47.850;9.002;2022-09-13T16:45:06;95297.75;;;24.43
67966;BMP280;54749;47.850;9.002;2022-09-13T16:47:33;95307.22;;;24.31
67966;BMP280;54749;47.850;9.002;2022-09-13T16:50:00;95303.53;;;24.21
67966;BMP280;54749;47.850;9.002;2022-09-13T16:52:27;95300.84;;;24.10
67966;BMP280;54749;47.850;9.002;2022-09-13T16:54:54;95298.94;;;23.99
67966;BMP280;54749;47.850;9.002;2022-09-13T16:57:21;95300.59;;;23.88
67966;BMP280;54749;47.850;9.002;2022-09-13T16:59:49;95300.34;;;23.71
67966;BMP280;54749;47.850;9.002;2022-09-13T17:02:19;95307.56;;;23.57
67966;BMP280;54749;47.850;9.002;2022-09-13T17:04:46;95306.84;;;23.44
67966;BMP280;54749;47.850;9.002;2022-09-13T17:07:13;95297.41;;;23.32
67966;BMP280;54749;47.850;9.002;2022-09-13T17:09:40;95298.25;;;23.19
67966;BMP280;54749;47.850;9.002;2022-09-13T17:12:08;95284.03;;;23.04
67966;BMP280;54749;47.850;9.002;2022-09-13T17:14:36;95289.66;;;22.89
67966;BMP280;54749;47.850;9.002;2022-09-13T17:17:03;95299.59;;;22.73